Time;durP1;ratioP1;P1;durP2;ratioP2;P2;SDS_P1;SDS_P2;PMS_P1;PMS_P2;Temp;Humidity;BMP_temperature;BMP_pressure;BME280_temperature;BME280_humidity;BME280_pressure;Samples;Min_cycle;Max_cycle;Signal;HPM_P1;HPM_P2
2021/05/30 00:02:16;;;;;;;;;;;13.60;94.70;;;;;;5092658;28;19961;-86
2021/05/30 00:04:42;;;;;;;;;;;13.60;94.60;;;;;;5091397;28;19908;-86
2021/05/30 00:07:07;;;;;;;;;;;13.60;94.60;;;;;;5091612;28;19947;-86
2021/05/30 00:09:33;;;;;;;;;;;13.60;94.60;;;;;;5091246;28;19915;-86
2021/05/30 00:11:59;;;;;;;;;;;13.60;94.70;;;;;;5092837;28;20479;-85
2021/05/30 00:14:24;;;;;;;;;;;13.60;94.60;;;;;;5092919;28;19928;-85
2021/05/30 00:16:50;;;;;;;;;;;13.60;94.80;;;;;;5092744;28;19912;-85
2021/05/30 00:19:15;;;;;;;;;;;13.50;94.80;;;;;;5092272;28;19915;-85
2021/05/30 00:21:41;;;;;;;;;;;13.50;94.70;;;;;;5092669;28;19924;-85
2021/05/30 00:24:07;;;;;;;;;;;13.50;94.70;;;;;;5091565;28;19908;-86
2021/05/30 00:26:33;;;;;;;;;;;13.50;94.80;;;;;;5092807;28;19913;-86
2021/05/30 00:28:58;;;;;;;;;;;13.40;94.90;;;;;;5090930;28;19908;-86
2021/05/30 00:31:24;;;;;;;;;;;13.40;94.90;;;;;;5092845;28;19909;-85
2021/05/30 00:33:49;;;;;;;;;;;13.40;94.90;;;;;;5091537;28;19969;-85
2021/05/30 00:36:15;;;;;;;;;;;13.40;94.90;;;;;;5091632;28;20337;-86
2021/05/30 00:38:40;;;;;;;;;;;13.40;94.90;;;;;;5091074;28;19919;-85
2021/05/30 00:41:06;;;;;;;;;;;13.40;95.00;;;;;;5092283;28;20406;-86
2021/05/30 00:43:44;;;;;;;;;;;13.40;95.00;;;;;;5091409;28;19908;-86
2021/05/30 00:46:09;;;;;;;;;;;13.40;95.00;;;;;;5091307;28;20380;-85
2021/05/30 00:48:36;;;;;;;;;;;13.40;94.90;;;;;;5091241;28;19919;-85
2021/05/30 00:51:02;;;;;;;;;;;13.40;95.00;;;;;;5090919;28;20326;-85
2021/05/30 00:53:27;;;;;;;;;;;13.30;95.00;;;;;;5092342;28;20318;-85
2021/05/30 00:55:53;;;;;;;;;;;13.30;95.10;;;;;;5092180;28;19908;-85
2021/05/30 00:58:19;;;;;;;;;;;13.30;95.10;;;;;;5090970;28;19919;-85
2021/05/30 01:00:44;;;;;;;;;;;13.30;95.10;;;;;;5090684;28;20380;-86
2021/05/30 01:03:09;;;;;;;;;;;13.30;95.10;;;;;;5091102;28;19920;-86
2021/05/30 01:05:35;;;;;;;;;;;13.20;95.10;;;;;;5093580;28;19915;-85
2021/05/30 01:08:00;;;;;;;;;;;13.20;95.20;;;;;;5094878;28;19908;-85
2021/05/30 01:10:33;;;;;;;;;;;13.20;95.20;;;;;;5095773;28;19912;-85
2021/05/30 01:12:59;;;;;;;;;;;13.20;95.20;;;;;;5096077;28;19915;-86
2021/05/30 01:15:25;;;;;;;;;;;13.10;95.30;;;;;;5096204;28;20119;-85
2021/05/30 01:17:51;;;;;;;;;;;13.10;95.40;;;;;;5094536;28;20303;-85
2021/05/30 01:20:17;;;;;;;;;;;13.20;95.40;;;;;;5095415;28;19916;-86
2021/05/30 01:22:44;;;;;;;;;;;13.10;95.40;;;;;;5094742;28;19916;-85
2021/05/30 01:25:10;;;;;;;;;;;13.10;95.40;;;;;;5095779;28;19936;-85
2021/05/30 01:27:36;;;;;;;;;;;13.10;95.50;;;;;;5095754;28;19919;-85
2021/05/30 01:30:03;;;;;;;;;;;13.10;95.40;;;;;;5094010;28;20380;-85
2021/05/30 01:32:28;;;;;;;;;;;13.10;95.40;;;;;;5094331;28;19990;-86
2021/05/30 01:34:54;;;;;;;;;;;13.00;95.50;;;;;;5094478;28;20003;-85
2021/05/30 01:37:19;;;;;;;;;;;13.00;95.50;;;;;;5095456;28;19912;-85
2021/05/30 01:39:45;;;;;;;;;;;13.00;95.70;;;;;;5093849;28;20394;-85
2021/05/30 01:42:10;;;;;;;;;;;13.00;95.60;;;;;;5095392;28;19915;-85
2021/05/30 01:44:36;;;;;;;;;;;13.00;95.60;;;;;;5094127;28;20012;-86
2021/05/30 01:47:01;;;;;;;;;;;13.00;95.60;;;;;;5095489;28;19915;-85
2021/05/30 01:49:27;;;;;;;;;;;13.00;95.60;;;;;;5093844;28;19914;-85
2021/05/30 01:51:52;;;;;;;;;;;12.90;95.70;;;;;;5094067;28;19999;-85
2021/05/30 01:54:19;;;;;;;;;;;12.90;95.60;;;;;;5095282;28;19930;-85
2021/05/30 01:56:57;;;;;;;;;;;12.80;95.70;;;;;;5093971;28;19918;-85
2021/05/30 01:59:27;;;;;;;;;;;12.80;95.90;;;;;;5093502;28;19916;-85
2021/05/30 02:01:54;;;;;;;;;;;12.80;96.00;;;;;;5094953;28;19908;-85
2021/05/30 02:04:22;;;;;;;;;;;12.90;95.80;;;;;;5093764;28;19908;-86
2021/05/30 02:06:48;;;;;;;;;;;12.80;95.90;;;;;;5095181;28;19943;-85
2021/05/30 02:09:14;;;;;;;;;;;12.80;95.90;;;;;;5094436;28;20003;-85
2021/05/30 02:11:40;;;;;;;;;;;12.80;96.10;;;;;;5094761;28;19919;-85
2021/05/30 02:14:06;;;;;;;;;;;12.70;96.10;;;;;;5093618;28;20272;-86
2021/05/30 02:16:32;;;;;;;;;;;12.70;96.10;;;;;;5092253;28;19916;-86
2021/05/30 02:18:58;;;;;;;;;;;12.70;96.10;;;;;;5092880;28;19912;-86
2021/05/30 02:21:24;;;;;;;;;;;12.70;96.20;;;;;;5093337;28;19915;-86
2021/05/30 02:23:49;;;;;;;;;;;12.60;96.10;;;;;;5094629;28;19908;-86
2021/05/30 02:26:15;;;;;;;;;;;12.50;96.50;;;;;;5093415;28;19912;-86
2021/05/30 02:28:40;;;;;;;;;;;12.40;96.60;;;;;;5093186;28;20409;-86
2021/05/30 02:31:06;;;;;;;;;;;12.40;96.60;;;;;;5092638;28;19908;-85
2021/05/30 02:33:32;;;;;;;;;;;12.50;96.50;;;;;;5094541;28;20284;-85
2021/05/30 02:35:57;;;;;;;;;;;12.50;96.60;;;;;;5093082;28;19934;-85
2021/05/30 02:38:23;;;;;;;;;;;12.40;96.60;;;;;;5094277;28;19912;-86
2021/05/30 02:40:48;;;;;;;;;;;12.40;96.60;;;;;;5092220;28;19916;-86
2021/05/30 02:43:14;;;;;;;;;;;12.50;96.60;;;;;;5091858;28;19909;-86
2021/05/30 02:45:39;;;;;;;;;;;12.40;96.60;;;;;;5093913;28;19908;-85
2021/05/30 02:48:05;;;;;;;;;;;12.30;96.70;;;;;;5092953;28;19918;-85
2021/05/30 02:50:30;;;;;;;;;;;12.30;96.90;;;;;;5093754;28;19908;-86
2021/05/30 02:52:56;;;;;;;;;;;12.40;96.90;;;;;;5092986;28;19916;-86
2021/05/30 02:55:21;;;;;;;;;;;12.40;96.90;;;;;;5092815;28;19912;-86
2021/05/30 02:57:47;;;;;;;;;;;12.40;96.70;;;;;;5093991;28;19918;-86
2021/05/30 03:00:13;;;;;;;;;;;12.30;96.90;;;;;;5092127;28;19912;-86
2021/05/30 03:02:39;;;;;;;;;;;12.30;97.00;;;;;;5092533;28;19915;-85
2021/05/30 03:05:05;;;;;;;;;;;12.20;97.30;;;;;;5092644;28;19916;-86
2021/05/30 03:07:31;;;;;;;;;;;12.10;97.20;;;;;;5092454;28;19904;-86
2021/05/30 03:09:56;;;;;;;;;;;12.10;97.10;;;;;;5092201;28;19962;-86
2021/05/30 03:12:22;;;;;;;;;;;12.20;97.00;;;;;;5092375;28;19908;-85
2021/05/30 03:14:47;;;;;;;;;;;12.20;97.00;;;;;;5092521;28;20437;-85
2021/05/30 03:17:13;;;;;;;;;;;12.30;96.90;;;;;;5092286;28;19925;-85
2021/05/30 03:19:38;;;;;;;;;;;12.20;96.90;;;;;;5093412;28;19908;-86
2021/05/30 03:22:04;;;;;;;;;;;12.20;97.00;;;;;;5092279;28;19908;-85
2021/05/30 03:24:29;;;;;;;;;;;12.10;97.10;;;;;;5092384;28;19912;-86
2021/05/30 03:26:55;;;;;;;;;;;12.20;97.20;;;;;;5091889;28;19912;-86
2021/05/30 03:29:21;;;;;;;;;;;12.20;97.00;;;;;;5091490;28;20363;-85
2021/05/30 03:31:46;;;;;;;;;;;12.10;96.90;;;;;;5092092;28;19915;-86
2021/05/30 03:34:12;;;;;;;;;;;12.10;97.00;;;;;;5093386;28;19912;-86
2021/05/30 03:36:37;;;;;;;;;;;12.10;97.10;;;;;;5093344;28;20329;-86
2021/05/30 03:39:06;;;;;;;;;;;12.10;97.10;;;;;;5091171;28;20347;-86
2021/05/30 03:41:37;;;;;;;;;;;12.10;97.10;;;;;;5092070;28;19915;-86
2021/05/30 03:44:04;;;;;;;;;;;12.10;97.10;;;;;;5091978;28;19908;-86
2021/05/30 03:46:29;;;;;;;;;;;12.10;97.00;;;;;;5091917;28;20368;-86
2021/05/30 03:48:55;;;;;;;;;;;12.10;97.10;;;;;;5092890;28;19915;-86
2021/05/30 03:51:20;;;;;;;;;;;12.10;97.00;;;;;;5093057;28;20028;-86
2021/05/30 03:53:46;;;;;;;;;;;12.10;97.30;;;;;;5094128;28;20403;-86
2021/05/30 03:56:12;;;;;;;;;;;12.10;97.20;;;;;;5092910;28;19995;-85
2021/05/30 03:58:37;;;;;;;;;;;12.00;97.30;;;;;;5093119;28;19965;-86
2021/05/30 04:01:03;;;;;;;;;;;12.10;97.20;;;;;;5092445;28;19977;-86
2021/05/30 04:03:28;;;;;;;;;;;12.00;97.40;;;;;;5094281;28;19991;-86
2021/05/30 04:05:54;;;;;;;;;;;12.00;97.30;;;;;;5095798;28;19908;-86
2021/05/30 04:08:19;;;;;;;;;;;11.90;97.50;;;;;;5095342;28;19908;-86
2021/05/30 04:10:45;;;;;;;;;;;12.00;97.40;;;;;;5094142;28;19951;-86
2021/05/30 04:13:11;;;;;;;;;;;12.00;97.40;;;;;;5094054;28;19908;-86
2021/05/30 04:15:37;;;;;;;;;;;12.00;97.30;;;;;;5093666;28;19939;-86
2021/05/30 04:18:02;;;;;;;;;;;11.90;97.50;;;;;;5092839;28;20433;-86
2021/05/30 04:20:28;;;;;;;;;;;11.70;97.70;;;;;;5092326;28;19929;-86
2021/05/30 04:22:53;;;;;;;;;;;11.70;97.90;;;;;;5092136;28;19943;-85
2021/05/30 04:25:19;;;;;;;;;;;11.70;98.00;;;;;;5093905;28;19908;-86
2021/05/30 04:27:45;;;;;;;;;;;11.70;97.90;;;;;;5092837;28;19912;-86
2021/05/30 04:30:11;;;;;;;;;;;11.70;97.80;;;;;;5091740;28;19908;-85
2021/05/30 04:32:37;;;;;;;;;;;11.80;98.10;;;;;;5092584;28;19908;-86
2021/05/30 04:35:03;;;;;;;;;;;11.80;97.40;;;;;;5095308;28;20368;-85
2021/05/30 04:37:29;;;;;;;;;;;11.80;97.70;;;;;;5092137;28;20013;-86
2021/05/30 04:39:55;;;;;;;;;;;11.80;97.80;;;;;;5092143;28;19919;-86
2021/05/30 04:42:21;;;;;;;;;;;11.80;97.90;;;;;;5096589;28;19908;-85
2021/05/30 04:44:46;;;;;;;;;;;11.70;97.90;;;;;;5095557;28;19914;-86
2021/05/30 04:47:12;;;;;;;;;;;11.80;97.90;;;;;;5095468;28;20284;-86
2021/05/30 04:49:38;;;;;;;;;;;11.80;97.50;;;;;;5094734;28;20467;-85
2021/05/30 04:52:04;;;;;;;;;;;11.90;97.20;;;;;;5095255;28;19952;-85
2021/05/30 04:54:29;;;;;;;;;;;12.00;97.10;;;;;;5095165;28;19915;-85
2021/05/30 04:56:55;;;;;;;;;;;11.90;97.10;;;;;;5096205;28;20135;-85
2021/05/30 04:59:20;;;;;;;;;;;12.00;97.00;;;;;;5095538;28;19919;-86
2021/05/30 05:01:46;;;;;;;;;;;12.00;97.10;;;;;;5096179;28;19908;-85
2021/05/30 05:04:11;;;;;;;;;;;12.00;97.20;;;;;;5094866;28;20003;-85
2021/05/30 05:06:37;;;;;;;;;;;12.00;97.30;;;;;;5094910;28;20272;-85
2021/05/30 05:09:03;;;;;;;;;;;12.10;97.30;;;;;;5094278;28;19908;-86
2021/05/30 05:11:28;;;;;;;;;;;12.10;97.40;;;;;;5094604;28;19908;-85
2021/05/30 05:13:54;;;;;;;;;;;12.20;97.40;;;;;;5094725;28;19918;-85
2021/05/30 05:16:20;;;;;;;;;;;12.20;97.40;;;;;;5094610;28;20003;-85
2021/05/30 05:18:45;;;;;;;;;;;12.40;97.20;;;;;;5094382;28;20090;-86
2021/05/30 05:21:11;;;;;;;;;;;12.40;97.00;;;;;;5094314;28;19912;-85
2021/05/30 05:23:36;;;;;;;;;;;12.40;97.10;;;;;;5094546;28;19908;-85
2021/05/30 05:26:03;;;;;;;;;;;12.50;97.00;;;;;;5094773;28;19944;-85
2021/05/30 05:28:29;;;;;;;;;;;12.60;96.90;;;;;;5094452;28;19909;-85
2021/05/30 05:30:55;;;;;;;;;;;12.70;96.70;;;;;;5095133;28;19916;-85
2021/05/30 05:33:20;;;;;;;;;;;12.80;96.70;;;;;;5094294;28;20021;-86
2021/05/30 05:35:46;;;;;;;;;;;12.90;96.30;;;;;;5094531;28;19947;-86
2021/05/30 05:38:11;;;;;;;;;;;12.90;96.30;;;;;;5094634;28;19916;-85
2021/05/30 05:40:37;;;;;;;;;;;12.90;96.10;;;;;;5131950;22;20428;-82
2021/05/30 05:43:04;;;;;;;;;;;12.90;96.20;;;;;;5117583;28;19907;-84
2021/05/30 05:45:31;;;;;;;;;;;13.00;96.50;;;;;;5119102;28;19911;-82
2021/05/30 05:47:56;;;;;;;;;;;13.00;96.10;;;;;;5119618;28;19908;-83
2021/05/30 05:50:23;;;;;;;;;;;13.10;95.90;;;;;;5117633;28;19930;-84
2021/05/30 05:52:49;;;;;;;;;;;13.10;95.80;;;;;;5119303;28;19908;-82
2021/05/30 05:55:14;;;;;;;;;;;13.20;95.80;;;;;;5120475;28;19907;-84
2021/05/30 05:57:41;;;;;;;;;;;13.20;95.70;;;;;;5119146;28;19937;-84
2021/05/30 06:00:07;;;;;;;;;;;13.20;95.50;;;;;;5118542;28;19908;-82
2021/05/30 06:02:33;;;;;;;;;;;13.30;95.20;;;;;;5118412;28;19908;-82
2021/05/30 06:04:58;;;;;;;;;;;13.30;94.80;;;;;;5116940;28;20335;-82
2021/05/30 06:07:24;;;;;;;;;;;13.40;94.90;;;;;;5118028;28;19908;-83
2021/05/30 06:09:51;;;;;;;;;;;13.40;95.10;;;;;;5118395;28;19911;-82
2021/05/30 06:12:16;;;;;;;;;;;13.40;95.20;;;;;;5118045;28;19915;-82
2021/05/30 06:14:42;;;;;;;;;;;13.50;95.10;;;;;;5117378;28;19915;-83
2021/05/30 06:17:08;;;;;;;;;;;13.50;95.30;;;;;;5117503;28;19998;-84
2021/05/30 06:19:33;;;;;;;;;;;13.50;95.20;;;;;;5118881;28;19908;-83
2021/05/30 06:21:59;;;;;;;;;;;13.50;95.10;;;;;;5118775;28;19955;-82
2021/05/30 06:24:24;;;;;;;;;;;13.60;95.10;;;;;;5118791;28;19909;-82
2021/05/30 06:26:53;;;;;;;;;;;13.60;95.30;;;;;;5118222;28;20301;-82
2021/05/30 06:29:18;;;;;;;;;;;13.60;95.10;;;;;;5117835;28;19904;-83
2021/05/30 06:31:44;;;;;;;;;;;13.60;94.60;;;;;;5116614;28;20379;-83
2021/05/30 06:34:14;;;;;;;;;;;13.60;94.70;;;;;;5117122;28;19911;-81
2021/05/30 06:36:40;;;;;;;;;;;13.60;94.70;;;;;;5117374;28;19912;-83
2021/05/30 06:39:06;;;;;;;;;;;13.70;94.70;;;;;;5115650;28;19923;-82
2021/05/30 06:41:32;;;;;;;;;;;13.70;94.60;;;;;;5116906;28;19955;-82
2021/05/30 06:43:57;;;;;;;;;;;13.80;94.20;;;;;;5117846;28;19908;-82
2021/05/30 06:46:24;;;;;;;;;;;13.80;94.20;;;;;;5118021;28;19952;-84
2021/05/30 06:48:50;;;;;;;;;;;13.90;94.10;;;;;;5116731;28;19915;-82
2021/05/30 06:51:16;;;;;;;;;;;13.90;94.00;;;;;;5116055;28;19908;-83
2021/05/30 06:53:46;;;;;;;;;;;13.90;93.60;;;;;;5115905;28;19914;-83
2021/05/30 06:56:12;;;;;;;;;;;13.90;93.90;;;;;;5116216;28;19994;-82
2021/05/30 06:58:38;;;;;;;;;;;13.90;93.60;;;;;;5116846;28;20347;-82
2021/05/30 07:01:03;;;;;;;;;;;14.00;93.50;;;;;;5116337;28;19907;-85
2021/05/30 07:03:29;;;;;;;;;;;14.00;93.50;;;;;;5114300;28;19908;-83
2021/05/30 07:05:54;;;;;;;;;;;14.00;93.20;;;;;;5115524;28;19929;-83
2021/05/30 07:08:19;;;;;;;;;;;14.00;92.60;;;;;;5116639;28;19908;-82
2021/05/30 07:10:45;;;;;;;;;;;14.10;92.30;;;;;;5114259;28;19911;-83
2021/05/30 07:13:11;;;;;;;;;;;14.10;91.60;;;;;;5115351;28;19919;-82
2021/05/30 07:15:36;;;;;;;;;;;14.10;91.90;;;;;;5116364;28;19991;-82
2021/05/30 07:18:02;;;;;;;;;;;14.20;91.90;;;;;;5114883;28;19916;-82
2021/05/30 07:20:27;;;;;;;;;;;14.20;91.00;;;;;;5114432;28;20002;-84
2021/05/30 07:22:53;;;;;;;;;;;14.20;91.20;;;;;;5114704;28;19950;-82
2021/05/30 07:25:18;;;;;;;;;;;14.30;91.30;;;;;;5114443;28;19908;-83
2021/05/30 07:27:44;;;;;;;;;;;14.30;91.50;;;;;;5116240;28;19907;-83
2021/05/30 07:30:09;;;;;;;;;;;14.30;91.60;;;;;;5113818;28;19916;-84
2021/05/30 07:32:35;;;;;;;;;;;14.40;91.50;;;;;;5116232;28;20360;-82
2021/05/30 07:35:01;;;;;;;;;;;14.30;91.60;;;;;;5114778;28;19986;-82
2021/05/30 07:37:26;;;;;;;;;;;14.40;91.60;;;;;;5114192;28;20344;-82
2021/05/30 07:39:52;;;;;;;;;;;14.40;91.60;;;;;;5114982;28;19968;-82
2021/05/30 07:42:17;;;;;;;;;;;14.40;91.50;;;;;;5114484;28;19915;-82
2021/05/30 07:44:43;;;;;;;;;;;14.50;91.20;;;;;;5114383;28;20382;-82
2021/05/30 07:47:08;;;;;;;;;;;14.50;91.00;;;;;;5114325;28;19908;-81
2021/05/30 07:49:34;;;;;;;;;;;14.50;91.00;;;;;;5115848;28;19915;-83
2021/05/30 07:52:00;;;;;;;;;;;14.50;91.00;;;;;;5114075;28;19915;-82
2021/05/30 07:54:26;;;;;;;;;;;14.60;90.80;;;;;;5114035;28;19911;-82
2021/05/30 07:56:51;;;;;;;;;;;14.60;90.60;;;;;;5114320;28;19908;-83
2021/05/30 07:59:18;;;;;;;;;;;14.60;90.70;;;;;;5115425;28;19915;-83
2021/05/30 08:01:43;;;;;;;;;;;14.60;90.80;;;;;;5116350;28;19908;-82
2021/05/30 08:04:08;;;;;;;;;;;14.60;90.80;;;;;;5114259;28;19968;-82
2021/05/30 08:06:34;;;;;;;;;;;14.70;90.50;;;;;;5114905;28;19912;-82
2021/05/30 08:09:00;;;;;;;;;;;14.70;90.30;;;;;;5115327;28;19907;-82
2021/05/30 08:11:26;;;;;;;;;;;14.70;90.50;;;;;;5115851;28;19915;-82
2021/05/30 08:13:51;;;;;;;;;;;14.80;90.30;;;;;;5115821;28;19994;-82
2021/05/30 08:16:18;;;;;;;;;;;14.80;90.30;;;;;;5114008;28;19914;-81
2021/05/30 08:18:43;;;;;;;;;;;14.80;89.70;;;;;;5116080;28;19919;-83
2021/05/30 08:21:09;;;;;;;;;;;14.80;90.00;;;;;;5113425;28;19912;-82
2021/05/30 08:23:35;;;;;;;;;;;14.80;89.90;;;;;;5114297;28;19912;-84
2021/05/30 08:26:01;;;;;;;;;;;14.90;89.70;;;;;;5113698;28;20011;-82
2021/05/30 08:28:26;;;;;;;;;;;14.90;88.20;;;;;;5115220;28;19951;-82
2021/05/30 08:30:52;;;;;;;;;;;14.90;88.70;;;;;;5115812;28;19919;-82
2021/05/30 08:33:17;;;;;;;;;;;14.90;88.80;;;;;;5115497;28;19908;-81
2021/05/30 08:35:43;;;;;;;;;;;15.00;89.00;;;;;;5113800;28;20041;-84
2021/05/30 08:38:08;;;;;;;;;;;15.00;88.70;;;;;;5113655;28;20637;-82
2021/05/30 08:40:34;;;;;;;;;;;15.00;88.60;;;;;;5112845;28;19958;-82
2021/05/30 08:42:59;;;;;;;;;;;15.00;85.80;;;;;;5115315;28;19908;-83
2021/05/30 08:45:25;;;;;;;;;;;15.10;85.80;;;;;;5115548;28;20333;-84
2021/05/30 08:47:51;;;;;;;;;;;15.10;84.90;;;;;;5113963;28;19911;-82
2021/05/30 08:50:16;;;;;;;;;;;15.10;85.20;;;;;;5112855;28;19908;-82
2021/05/30 08:52:42;;;;;;;;;;;15.20;84.50;;;;;;5115154;28;19915;-82
2021/05/30 08:55:08;;;;;;;;;;;15.10;84.80;;;;;;5113195;28;20443;-83
2021/05/30 08:57:33;;;;;;;;;;;15.20;85.50;;;;;;5111599;28;20450;-82
2021/05/30 08:59:59;;;;;;;;;;;15.20;85.30;;;;;;5112482;28;19962;-83
2021/05/30 09:02:25;;;;;;;;;;;15.30;85.10;;;;;;5111364;28;20002;-84
2021/05/30 09:04:55;;;;;;;;;;;15.30;83.90;;;;;;5111552;28;19919;-84
2021/05/30 09:07:44;;;;;;;;;;;15.40;82.80;;;;;;5111792;28;20043;-83
2021/05/30 09:10:11;;;;;;;;;;;15.40;83.20;;;;;;5105586;28;19907;-83
2021/05/30 09:12:41;;;;;;;;;;;15.40;82.00;;;;;;5113636;28;19908;-83
2021/05/30 09:15:14;;;;;;;;;;;15.40;81.90;;;;;;5113290;28;19908;-83
2021/05/30 09:17:40;;;;;;;;;;;15.50;81.00;;;;;;5112537;28;19912;-83
2021/05/30 09:20:07;;;;;;;;;;;15.50;81.00;;;;;;5110977;28;19918;-84
2021/05/30 09:22:42;;;;;;;;;;;15.60;81.30;;;;;;5112853;28;19915;-83
2021/05/30 09:25:22;;;;;;;;;;;15.60;81.20;;;;;;5113685;28;19930;-84
2021/05/30 09:27:47;;;;;;;;;;;15.60;80.30;;;;;;5116497;28;20336;-82
2021/05/30 09:30:16;;;;;;;;;;;15.60;79.50;;;;;;5116118;28;19951;-83
2021/05/30 09:32:53;;;;;;;;;;;15.80;79.10;;;;;;5117822;28;19911;-82
2021/05/30 09:35:45;;;;;;;;;;;15.70;78.80;;;;;;5117040;28;19998;-81
2021/05/30 09:38:14;;;;;;;;;;;15.80;79.50;;;;;;5112439;28;19915;-84
2021/05/30 09:40:44;;;;;;;;;;;15.80;79.30;;;;;;5113768;28;19916;-84
2021/05/30 09:43:14;;;;;;;;;;;15.80;79.40;;;;;;5114387;28;20364;-84
2021/05/30 09:45:40;;;;;;;;;;;15.80;78.20;;;;;;5114487;28;19914;-84
2021/05/30 09:48:18;;;;;;;;;;;15.80;77.90;;;;;;5114582;28;19908;-84
2021/05/30 09:51:02;;;;;;;;;;;15.80;77.20;;;;;;5113685;28;19957;-83
2021/05/30 09:53:28;;;;;;;;;;;15.80;78.20;;;;;;5115691;28;19927;-83
2021/05/30 09:55:54;;;;;;;;;;;15.80;78.00;;;;;;5114463;28;19954;-83
2021/05/30 09:58:20;;;;;;;;;;;15.80;78.40;;;;;;5114459;28;20341;-84
2021/05/30 10:00:51;;;;;;;;;;;15.90;77.00;;;;;;5115109;28;19908;-83
2021/05/30 10:03:20;;;;;;;;;;;15.90;77.00;;;;;;5114035;28;19908;-84
2021/05/30 10:05:45;;;;;;;;;;;16.00;76.60;;;;;;5115741;28;19955;-83
2021/05/30 10:08:11;;;;;;;;;;;16.00;76.30;;;;;;5115414;28;19944;-83
2021/05/30 10:10:37;;;;;;;;;;;16.30;75.20;;;;;;5113457;28;19908;-84
2021/05/30 10:13:03;;;;;;;;;;;16.20;75.60;;;;;;5113961;28;19930;-83
2021/05/30 10:15:29;;;;;;;;;;;16.20;75.80;;;;;;5115322;28;19912;-83
2021/05/30 10:17:57;;;;;;;;;;;16.20;75.80;;;;;;5113739;28;19912;-84
2021/05/30 10:20:23;;;;;;;;;;;16.20;76.10;;;;;;5113211;28;20276;-83
2021/05/30 10:22:52;;;;;;;;;;;16.20;75.70;;;;;;5115011;28;19915;-83
2021/05/30 10:25:31;;;;;;;;;;;16.20;75.60;;;;;;5114892;28;20392;-83
2021/05/30 10:28:10;;;;;;;;;;;16.20;75.30;;;;;;5113666;28;19908;-83
2021/05/30 10:30:36;;;;;;;;;;;16.30;74.30;;;;;;5114252;28;20007;-83
2021/05/30 10:33:11;;;;;;;;;;;16.40;73.90;;;;;;5114441;28;19908;-83
2021/05/30 10:35:36;;;;;;;;;;;16.30;73.80;;;;;;5114958;28;19923;-83
2021/05/30 10:38:02;;;;;;;;;;;16.40;73.70;;;;;;5112214;28;19911;-84
2021/05/30 10:40:28;;;;;;;;;;;16.40;72.70;;;;;;5112683;28;19915;-83
2021/05/30 10:43:09;;;;;;;;;;;16.50;72.30;;;;;;5113209;28;19990;-83
2021/05/30 10:45:44;;;;;;;;;;;16.50;72.70;;;;;;5114354;28;19908;-83
2021/05/30 10:48:09;;;;;;;;;;;16.70;70.40;;;;;;5116404;28;19975;-81
2021/05/30 10:50:37;;;;;;;;;;;16.70;69.60;;;;;;5115531;28;20336;-82
2021/05/30 10:53:04;;;;;;;;;;;16.70;70.00;;;;;;5118106;28;20268;-83
2021/05/30 10:55:30;;;;;;;;;;;16.60;70.30;;;;;;5116059;28;20005;-82
2021/05/30 10:57:56;;;;;;;;;;;16.70;70.70;;;;;;5117802;28;20106;-82
2021/05/30 11:00:25;;;;;;;;;;;16.60;69.10;;;;;;5115825;28;19911;-82
2021/05/30 11:03:03;;;;;;;;;;;16.70;68.30;;;;;;5117229;28;20360;-83
2021/05/30 11:05:49;;;;;;;;;;;16.90;67.20;;;;;;5113016;28;20340;-83
2021/05/30 11:08:30;;;;;;;;;;;17.00;65.60;;;;;;5112920;28;19907;-83
2021/05/30 11:11:11;;;;;;;;;;;16.90;66.40;;;;;;5112181;28;20381;-83
2021/05/30 11:13:56;;;;;;;;;;;16.90;68.00;;;;;;5112836;28;20328;-83
2021/05/30 11:16:23;;;;;;;;;;;16.90;68.90;;;;;;5114235;28;19926;-83
2021/05/30 11:19:03;;;;;;;;;;;17.00;66.00;;;;;;5112324;28;19911;-83
2021/05/30 11:21:29;;;;;;;;;;;17.00;65.70;;;;;;5114012;28;19908;-83
2021/05/30 11:23:57;;;;;;;;;;;17.00;66.60;;;;;;5113720;27;19914;-83
2021/05/30 11:26:23;;;;;;;;;;;17.00;66.10;;;;;;5112492;28;19911;-83
2021/05/30 11:28:48;;;;;;;;;;;17.00;64.70;;;;;;5112191;28;19908;-83
2021/05/30 11:31:14;;;;;;;;;;;17.00;64.50;;;;;;5113002;28;20010;-82
2021/05/30 11:33:45;;;;;;;;;;;17.00;64.30;;;;;;5116168;28;19908;-83
2021/05/30 11:36:15;;;;;;;;;;;17.00;64.20;;;;;;5116315;28;19908;-81
2021/05/30 11:38:42;;;;;;;;;;;17.20;63.10;;;;;;5112929;28;20445;-84
2021/05/30 11:41:12;;;;;;;;;;;17.20;63.40;;;;;;5117956;22;19951;-87
2021/05/30 11:43:38;;;;;;;;;;;17.20;63.80;;;;;;5092391;28;19908;-87
2021/05/30 11:46:10;;;;;;;;;;;17.30;61.70;;;;;;5094163;28;19943;-87
2021/05/30 11:48:36;;;;;;;;;;;17.40;60.90;;;;;;5094245;28;19919;-84
2021/05/30 11:51:02;;;;;;;;;;;17.40;61.90;;;;;;5108857;28;19912;-85
2021/05/30 11:53:33;;;;;;;;;;;17.40;61.30;;;;;;5092857;28;19975;-85
2021/05/30 11:56:00;;;;;;;;;;;17.30;61.40;;;;;;5093589;28;19935;-85
2021/05/30 11:58:26;;;;;;;;;;;17.40;59.90;;;;;;5092809;28;19920;-86
2021/05/30 12:00:55;;;;;;;;;;;17.50;61.00;;;;;;5092406;28;20368;-86
2021/05/30 12:03:20;;;;;;;;;;;17.40;60.40;;;;;;5092735;28;19914;-86
2021/05/30 12:05:46;;;;;;;;;;;17.60;57.70;;;;;;5092858;28;20010;-86
2021/05/30 12:08:12;;;;;;;;;;;17.60;59.40;;;;;;5108118;28;19919;-86
2021/05/30 12:10:46;;;;;;;;;;;17.80;57.50;;;;;;5092058;28;19908;-86
2021/05/30 12:13:23;;;;;;;;;;;17.80;58.40;;;;;;5091431;28;19912;-86
2021/05/30 12:15:48;;;;;;;;;;;17.80;59.00;;;;;;5091487;28;20332;-86
2021/05/30 12:18:14;;;;;;;;;;;18.00;58.80;;;;;;5108517;28;19967;-86
2021/05/30 12:20:40;;;;;;;;;;;18.00;59.60;;;;;;5107914;28;19908;-86
2021/05/30 12:23:07;;;;;;;;;;;18.10;59.90;;;;;;5091546;28;20007;-85
2021/05/30 12:25:33;;;;;;;;;;;18.20;59.30;;;;;;5091313;28;19916;-86
2021/05/30 12:27:58;;;;;;;;;;;18.30;56.60;;;;;;5091149;28;19915;-86
2021/05/30 12:30:24;;;;;;;;;;;18.40;56.80;;;;;;5090889;28;20479;-86
2021/05/30 12:32:50;;;;;;;;;;;18.50;57.60;;;;;;5092284;28;19908;-86
2021/05/30 12:35:15;;;;;;;;;;;18.70;55.80;;;;;;5091112;28;20003;-86
2021/05/30 12:37:42;;;;;;;;;;;18.70;57.10;;;;;;5107950;28;19920;-86
2021/05/30 12:40:09;;;;;;;;;;;18.80;57.60;;;;;;5091873;28;19916;-86
2021/05/30 12:42:36;;;;;;;;;;;18.90;56.70;;;;;;5092368;28;19991;-86
2021/05/30 12:45:10;;;;;;;;;;;18.90;56.70;;;;;;5091370;28;19915;-86
2021/05/30 12:47:40;;;;;;;;;;;19.10;53.70;;;;;;5092499;28;20368;-86
2021/05/30 12:50:06;;;;;;;;;;;19.20;55.10;;;;;;5090972;28;19916;-86
2021/05/30 12:52:49;;;;;;;;;;;19.20;55.70;;;;;;5091156;28;20299;-86
2021/05/30 12:55:16;;;;;;;;;;;19.20;56.30;;;;;;5092369;28;19910;-86
2021/05/30 12:57:43;;;;;;;;;;;19.20;56.60;;;;;;5090808;28;20296;-86
2021/05/30 13:00:10;;;;;;;;;;;19.20;55.30;;;;;;5090533;28;19908;-86
2021/05/30 13:02:35;;;;;;;;;;;19.10;55.30;;;;;;5096428;28;19908;-86
2021/05/30 13:05:01;;;;;;;;;;;18.90;55.30;;;;;;5096478;28;19931;-85
2021/05/30 13:07:31;;;;;;;;;;;18.80;55.20;;;;;;5094790;28;19908;-86
2021/05/30 13:10:01;;;;;;;;;;;18.70;56.60;;;;;;5095644;28;19954;-86
2021/05/30 13:12:27;;;;;;;;;;;18.80;54.60;;;;;;5094914;28;19912;-86
2021/05/30 13:15:11;;;;;;;;;;;18.80;53.90;;;;;;5096288;28;20337;-86
2021/05/30 13:17:38;;;;;;;;;;;18.70;55.10;;;;;;5095932;28;19919;-86
2021/05/30 13:20:03;;;;;;;;;;;18.80;54.40;;;;;;5095205;28;19908;-86
2021/05/30 13:22:29;;;;;;;;;;;18.80;54.90;;;;;;5094528;28;19995;-86
2021/05/30 13:24:55;;;;;;;;;;;18.70;55.20;;;;;;5111199;28;20279;-86
2021/05/30 13:27:21;;;;;;;;;;;18.80;54.90;;;;;;5095652;28;19908;-85
2021/05/30 13:29:59;;;;;;;;;;;18.80;53.90;;;;;;5095036;28;20016;-86
2021/05/30 13:32:24;;;;;;;;;;;18.80;54.50;;;;;;5094172;28;19916;-86
2021/05/30 13:34:49;;;;;;;;;;;18.90;53.80;;;;;;5111159;28;19909;-86
2021/05/30 13:37:15;;;;;;;;;;;18.80;54.30;;;;;;5095336;28;20003;-87
2021/05/30 13:39:40;;;;;;;;;;;18.90;54.20;;;;;;5094552;28;19923;-86
2021/05/30 13:42:06;;;;;;;;;;;18.80;54.60;;;;;;5111064;28;19909;-86
2021/05/30 13:44:31;;;;;;;;;;;18.90;55.20;;;;;;5111237;28;19912;-86
2021/05/30 13:46:57;;;;;;;;;;;18.90;56.20;;;;;;5110878;28;19908;-86
2021/05/30 13:49:23;;;;;;;;;;;19.00;57.50;;;;;;5110661;28;19954;-86
2021/05/30 13:51:48;;;;;;;;;;;19.00;57.40;;;;;;5110809;28;19908;-86
2021/05/30 13:54:14;;;;;;;;;;;19.10;57.80;;;;;;5094134;28;20011;-86
2021/05/30 13:56:39;;;;;;;;;;;19.40;56.80;;;;;;5093795;28;19931;-86
2021/05/30 13:59:05;;;;;;;;;;;19.40;57.70;;;;;;5093088;28;19923;-86
2021/05/30 14:01:30;;;;;;;;;;;19.50;57.40;;;;;;5110941;28;19954;-86
2021/05/30 14:03:56;;;;;;;;;;;19.70;56.70;;;;;;5110808;28;19961;-86
2021/05/30 14:06:22;;;;;;;;;;;19.80;57.20;;;;;;5093659;28;19912;-86
2021/05/30 14:08:47;;;;;;;;;;;20.00;55.90;;;;;;5110345;28;19966;-86
2021/05/30 14:11:13;;;;;;;;;;;20.40;55.80;;;;;;5109722;28;20075;-86
2021/05/30 14:13:39;;;;;;;;;;;20.80;55.20;;;;;;5110590;28;20360;-87
2021/05/30 14:16:05;;;;;;;;;;;21.10;54.10;;;;;;5094067;28;20393;-86